createdAt,value
2018-09-12T00:01:41.758Z,24.41
2018-09-12T00:04:10.515Z,24.40
2018-09-12T00:06:39.266Z,24.40
2018-09-12T00:09:10.192Z,24.38
2018-09-12T00:11:38.969Z,24.39
2018-09-12T00:14:07.731Z,24.38
2018-09-12T00:16:37.117Z,24.37
2018-09-12T00:19:06.197Z,24.37
2018-09-12T00:21:34.920Z,24.36
2018-09-12T00:24:03.685Z,24.36
2018-09-12T00:26:32.444Z,24.36
2018-09-12T00:29:01.366Z,24.35
2018-09-12T00:31:30.125Z,24.35
2018-09-12T00:33:58.939Z,24.35
2018-09-12T00:36:27.658Z,24.34
2018-09-12T00:38:56.437Z,24.33
2018-09-12T00:41:25.204Z,24.33
2018-09-12T00:43:53.986Z,24.34
2018-09-12T00:46:22.714Z,24.33
2018-09-12T00:48:51.496Z,24.33
2018-09-12T00:51:20.258Z,24.32
2018-09-12T00:53:49.000Z,24.33
2018-09-12T00:56:17.757Z,24.31
2018-09-12T00:58:46.556Z,24.31
2018-09-12T01:01:15.346Z,24.30
2018-09-12T01:03:44.249Z,24.30
2018-09-12T01:06:12.974Z,24.31
2018-09-12T01:08:41.769Z,24.30
2018-09-12T01:11:10.542Z,24.29
2018-09-12T01:13:39.308Z,24.27
2018-09-12T01:16:08.091Z,24.28
2018-09-12T01:18:36.806Z,24.27
2018-09-12T01:21:05.728Z,24.26
2018-09-12T01:23:34.477Z,24.26
2018-09-12T01:26:03.256Z,24.26
2018-09-12T01:28:31.973Z,24.25
2018-09-12T01:31:00.749Z,24.24
2018-09-12T01:33:29.540Z,24.24
2018-09-12T01:35:58.261Z,24.24
2018-09-12T01:38:27.062Z,24.22
2018-09-12T01:40:55.986Z,24.23
2018-09-12T01:43:24.758Z,24.22
2018-09-12T01:45:53.522Z,24.21
2018-09-12T01:48:22.265Z,24.21
2018-09-12T01:50:51.017Z,24.19
2018-09-12T01:53:19.805Z,24.20
2018-09-12T01:55:48.519Z,24.19
2018-09-12T01:58:17.373Z,24.19
2018-09-12T02:00:46.189Z,24.19
2018-09-12T02:03:14.994Z,24.18
2018-09-12T02:05:43.840Z,24.17
2018-09-12T02:08:12.544Z,24.17
2018-09-12T02:10:41.320Z,24.17
2018-09-12T02:13:10.089Z,24.16
2018-09-12T02:15:38.849Z,24.15
2018-09-12T02:18:07.635Z,24.15
2018-09-12T02:20:36.395Z,24.13
2018-09-12T02:23:05.186Z,24.13
2018-09-12T02:25:33.948Z,24.14
2018-09-12T02:28:02.738Z,24.13
2018-09-12T02:30:31.478Z,24.13
2018-09-12T02:33:00.265Z,24.13
2018-09-12T02:35:29.122Z,24.12
2018-09-12T02:37:57.845Z,24.12
2018-09-12T02:40:26.607Z,24.09
2018-09-12T02:42:55.354Z,24.13
2018-09-12T02:45:24.115Z,24.12
2018-09-12T02:47:52.862Z,24.12
2018-09-12T02:50:21.598Z,24.12
2018-09-12T02:52:50.397Z,24.12
2018-09-12T02:55:19.114Z,24.12
2018-09-12T02:57:47.884Z,24.12
2018-09-12T03:00:16.630Z,24.11
2018-09-12T03:02:45.413Z,24.12
2018-09-12T03:05:14.170Z,24.12
2018-09-12T03:07:42.931Z,24.12
2018-09-12T03:10:11.677Z,24.12
2018-09-12T03:12:40.452Z,24.11
2018-09-12T03:15:09.279Z,24.11
2018-09-12T03:17:38.010Z,24.11
2018-09-12T03:20:06.885Z,24.12
2018-09-12T03:22:35.620Z,24.12
2018-09-12T03:25:04.489Z,24.12
2018-09-12T03:27:33.237Z,24.07
2018-09-12T03:30:01.971Z,24.11
2018-09-12T03:32:30.703Z,24.11
2018-09-12T03:34:59.547Z,24.11
2018-09-12T03:37:28.312Z,24.11
2018-09-12T03:39:57.079Z,24.11
2018-09-12T03:42:25.777Z,24.10
2018-09-12T03:44:54.595Z,24.10
2018-09-12T03:47:23.386Z,24.10
2018-09-12T03:49:52.173Z,24.10
2018-09-12T03:52:21.004Z,24.09
2018-09-12T03:54:49.868Z,24.09
2018-09-12T03:57:18.625Z,24.08
2018-09-12T03:59:47.461Z,24.08
2018-09-12T04:02:16.205Z,24.07
2018-09-12T04:04:44.920Z,24.07
2018-09-12T04:07:13.687Z,24.07
2018-09-12T04:09:42.538Z,24.07
2018-09-12T04:12:11.299Z,24.07
2018-09-12T04:14:40.077Z,24.06
2018-09-12T04:17:08.880Z,24.06
2018-09-12T04:19:37.603Z,24.05
2018-09-12T04:22:06.390Z,24.06
2018-09-12T04:24:35.144Z,24.05
2018-09-12T04:27:04.199Z,24.04
2018-09-12T04:29:32.939Z,24.05
2018-09-12T04:32:01.898Z,24.05
2018-09-12T04:34:30.722Z,24.04
2018-09-12T04:36:59.466Z,24.04
2018-09-12T04:39:28.248Z,24.04
2018-09-12T04:41:57.043Z,24.03
2018-09-12T04:44:25.802Z,24.03
2018-09-12T04:46:54.685Z,24.03
2018-09-12T04:49:23.532Z,23.83
2018-09-12T04:51:52.347Z,24.04
2018-09-12T04:54:21.097Z,24.03
2018-09-12T04:56:49.828Z,24.03
2018-09-12T04:59:18.605Z,24.03
2018-09-12T05:01:47.397Z,24.03
2018-09-12T05:04:16.208Z,24.03
2018-09-12T05:06:44.946Z,24.03
2018-09-12T05:09:13.864Z,24.04
2018-09-12T05:11:42.678Z,24.04
2018-09-12T05:14:11.503Z,24.04
2018-09-12T05:16:41.230Z,24.05
2018-09-12T05:19:09.979Z,24.04
2018-09-12T05:21:38.757Z,24.05
2018-09-12T05:24:07.496Z,24.05
2018-09-12T05:26:36.331Z,24.05
2018-09-12T05:29:05.437Z,24.05
2018-09-12T05:31:34.283Z,24.07
2018-09-12T05:34:03.077Z,24.07
2018-09-12T05:36:31.881Z,24.06
2018-09-12T05:39:00.700Z,24.07
2018-09-12T05:41:29.538Z,24.08
2018-09-12T05:43:58.273Z,24.08
2018-09-12T05:46:27.067Z,24.08
2018-09-12T05:48:55.908Z,24.08
2018-09-12T05:51:24.718Z,24.09
2018-09-12T05:53:53.601Z,24.09
2018-09-12T05:56:22.345Z,24.11
2018-09-12T05:58:51.317Z,24.11
2018-09-12T06:01:20.121Z,24.12
2018-09-12T06:03:48.955Z,24.13
2018-09-12T06:06:17.823Z,24.14
2018-09-12T06:08:46.607Z,24.14
2018-09-12T06:11:15.419Z,24.15
2018-09-12T06:13:44.272Z,24.15
2018-09-12T06:16:13.058Z,24.16
2018-09-12T06:18:41.831Z,24.16
2018-09-12T06:21:10.669Z,24.16
2018-09-12T06:23:39.422Z,24.16
2018-09-12T06:26:08.218Z,24.17
2018-09-12T06:28:36.979Z,24.18
2018-09-12T06:31:06.014Z,24.18
2018-09-12T06:33:34.750Z,24.18
2018-09-12T06:36:03.706Z,24.18
2018-09-12T06:38:32.642Z,24.18
2018-09-12T06:41:01.451Z,24.19
2018-09-12T06:43:30.207Z,24.21
2018-09-12T06:45:58.968Z,24.21
2018-09-12T06:48:27.955Z,24.22
2018-09-12T06:50:56.810Z,24.21
2018-09-12T06:53:25.908Z,24.22
2018-09-12T06:55:54.749Z,24.23
2018-09-12T06:58:23.531Z,24.23
2018-09-12T07:00:52.588Z,24.23
2018-09-12T07:03:21.573Z,24.23
2018-09-12T07:05:50.510Z,24.15
2018-09-12T07:08:19.434Z,24.23
2018-09-12T07:10:48.168Z,24.23
2018-09-12T07:13:17.324Z,24.24
2018-09-12T07:15:46.429Z,24.25
2018-09-12T07:18:15.331Z,24.25
2018-09-12T07:20:44.172Z,24.27
2018-09-12T07:23:12.911Z,24.28
2018-09-12T07:25:42.101Z,24.29
2018-09-12T07:28:11.105Z,24.31
2018-09-12T07:30:40.207Z,24.32
2018-09-12T07:33:09.184Z,24.33
2018-09-12T07:35:38.295Z,24.35
2018-09-12T07:38:07.132Z,24.36
2018-09-12T07:40:35.926Z,24.38
2018-09-12T07:43:04.806Z,24.38
2018-09-12T07:45:33.530Z,24.39
2018-09-12T07:48:02.305Z,24.39
2018-09-12T07:50:31.153Z,24.40
2018-09-12T07:52:59.921Z,24.41
2018-09-12T07:55:28.668Z,24.42
2018-09-12T07:57:57.395Z,24.42
2018-09-12T08:00:26.260Z,24.43
2018-09-12T08:02:55.013Z,24.44
2018-09-12T08:05:23.745Z,24.44
2018-09-12T08:07:52.513Z,24.46
2018-09-12T08:10:21.343Z,24.47
2018-09-12T08:12:50.168Z,24.47
2018-09-12T08:15:19.136Z,24.47
2018-09-12T08:17:48.310Z,24.47
2018-09-12T08:20:17.365Z,24.49
2018-09-12T08:22:46.321Z,24.50
2018-09-12T08:25:15.107Z,24.49
2018-09-12T08:27:43.850Z,24.50
2018-09-12T08:30:12.948Z,24.50
2018-09-12T08:32:41.730Z,24.50
2018-09-12T08:35:12.198Z,24.50
2018-09-12T08:37:41.201Z,24.50
2018-09-12T08:40:10.396Z,24.50
2018-09-12T08:42:39.211Z,24.50
2018-09-12T08:45:08.118Z,24.50
2018-09-12T08:47:37.109Z,24.50
2018-09-12T08:50:06.750Z,24.49
2018-09-12T08:52:35.529Z,24.48
2018-09-12T08:55:05.021Z,24.48
2018-09-12T08:57:33.756Z,24.47
2018-09-12T09:00:02.765Z,24.47
2018-09-12T09:02:31.781Z,24.47
2018-09-12T09:05:00.856Z,24.46
2018-09-12T09:07:29.698Z,24.43
2018-09-12T09:09:58.537Z,24.47
2018-09-12T09:12:27.438Z,24.46
2018-09-12T09:14:56.386Z,24.45
2018-09-12T09:17:25.227Z,24.45
2018-09-12T09:19:54.107Z,24.44
2018-09-12T09:22:23.149Z,24.44
2018-09-12T09:24:51.902Z,24.43
2018-09-12T09:27:21.025Z,24.43
2018-09-12T09:29:50.178Z,24.42
2018-09-12T09:32:19.247Z,24.41
2018-09-12T09:34:48.471Z,24.40
2018-09-12T09:37:17.763Z,24.39
2018-09-12T09:39:46.619Z,24.39
2018-09-12T09:42:15.670Z,24.39
2018-09-12T09:44:44.441Z,24.37
2018-09-12T09:47:13.466Z,24.38
2018-09-12T09:49:42.581Z,24.38
2018-09-12T09:52:11.538Z,24.38
2018-09-12T09:54:40.560Z,24.38
2018-09-12T09:57:09.553Z,24.38
2018-09-12T09:59:39.373Z,24.38
2018-09-12T10:02:13.534Z,24.38
2018-09-12T10:04:47.580Z,24.37
2018-09-12T10:07:22.008Z,24.37
2018-09-12T10:09:55.285Z,24.37
2018-09-12T10:12:24.279Z,24.36
2018-09-12T10:14:53.340Z,24.36
2018-09-12T10:17:22.400Z,24.37
2018-09-12T10:19:51.512Z,24.36
2018-09-12T10:22:20.450Z,24.34
2018-09-12T10:24:49.494Z,24.36
2018-09-12T10:27:18.553Z,24.35
2018-09-12T10:29:47.776Z,24.35
2018-09-12T10:32:16.887Z,24.34
2018-09-12T10:34:45.935Z,24.34
2018-09-12T10:37:16.547Z,24.34
2018-09-12T10:39:45.590Z,24.34
2018-09-12T10:42:14.774Z,24.32
2018-09-12T10:44:44.023Z,24.33
2018-09-12T10:47:13.255Z,24.32
2018-09-12T10:49:42.026Z,24.31
2018-09-12T10:52:11.307Z,24.31
2018-09-12T10:54:40.058Z,24.31
2018-09-12T10:57:08.934Z,24.30
2018-09-12T10:59:37.726Z,24.29
2018-09-12T11:02:06.549Z,24.29
2018-09-12T11:04:35.300Z,24.28
2018-09-12T11:07:04.192Z,24.28
2018-09-12T11:09:32.935Z,24.27
2018-09-12T11:12:02.077Z,24.26
2018-09-12T11:14:30.823Z,24.25
2018-09-12T11:16:59.575Z,24.26
2018-09-12T11:19:28.379Z,24.25
2018-09-12T11:21:57.159Z,24.25
2018-09-12T11:24:25.909Z,24.24
2018-09-12T11:26:54.622Z,24.23
2018-09-12T11:29:23.434Z,24.23
2018-09-12T11:31:52.453Z,24.23
2018-09-12T11:34:21.562Z,24.21
2018-09-12T11:36:50.486Z,24.21
2018-09-12T11:39:19.529Z,24.21
2018-09-12T11:41:48.473Z,24.21
2018-09-12T11:44:17.245Z,24.20
2018-09-12T11:46:45.961Z,24.18
2018-09-12T11:49:14.812Z,24.18
2018-09-12T11:51:43.657Z,24.18
2018-09-12T11:54:12.376Z,24.17
2018-09-12T11:56:41.361Z,24.17
2018-09-12T11:59:10.205Z,24.17
2018-09-12T12:01:39.000Z,24.15
2018-09-12T12:04:08.276Z,24.15
2018-09-12T12:06:37.340Z,24.14
2018-09-12T12:09:08.816Z,24.15
2018-09-12T12:11:38.012Z,24.14
2018-09-12T12:14:07.246Z,24.13
2018-09-12T12:16:36.447Z,24.14
2018-09-12T12:19:05.829Z,24.13
2018-09-12T12:21:35.002Z,24.14
2018-09-12T12:24:04.811Z,24.12
2018-09-12T12:26:33.825Z,24.13
2018-09-12T12:29:03.445Z,24.13
2018-09-12T12:31:32.562Z,24.12
2018-09-12T12:34:01.598Z,24.12
2018-09-12T12:36:30.712Z,24.13
2018-09-12T12:38:59.484Z,24.12
2018-09-12T12:41:28.446Z,24.13
2018-09-12T12:43:57.223Z,24.12
2018-09-12T12:46:26.229Z,24.13
2018-09-12T12:48:55.284Z,24.13
2018-09-12T12:51:24.337Z,24.11
2018-09-12T12:53:53.303Z,24.12
2018-09-12T12:56:22.322Z,24.11
2018-09-12T12:58:51.647Z,24.12
2018-09-12T13:01:21.045Z,24.12
2018-09-12T13:03:50.091Z,24.12
2018-09-12T13:06:18.873Z,24.11
2018-09-12T13:08:48.077Z,24.10
2018-09-12T13:11:17.137Z,24.11
2018-09-12T13:13:46.090Z,24.11
2018-09-12T13:16:15.222Z,24.10
2018-09-12T13:18:44.137Z,24.09
2018-09-12T13:21:13.248Z,24.09
2018-09-12T13:23:42.065Z,24.07
2018-09-12T13:26:10.911Z,24.08
2018-09-12T13:28:39.650Z,24.07
2018-09-12T13:31:08.827Z,24.07
2018-09-12T13:33:37.821Z,24.07
2018-09-12T13:36:06.877Z,24.06
2018-09-12T13:38:35.851Z,24.05
2018-09-12T13:41:04.948Z,24.05
2018-09-12T13:43:34.043Z,24.05
2018-09-12T13:46:02.983Z,24.05
2018-09-12T13:48:31.795Z,24.04
2018-09-12T13:51:00.572Z,24.03
2018-09-12T13:53:29.556Z,24.03
2018-09-12T13:55:58.370Z,24.03
2018-09-12T13:58:27.145Z,24.02
2018-09-12T14:00:55.889Z,24.02
2018-09-12T14:03:24.944Z,24.02
2018-09-12T14:05:54.031Z,24.01
2018-09-12T14:08:22.861Z,24.00
2018-09-12T14:10:51.635Z,24.01
2018-09-12T14:13:20.707Z,24.00
2018-09-12T14:15:49.846Z,23.98
2018-09-12T14:18:18.792Z,23.98
2018-09-12T14:20:47.637Z,23.98
2018-09-12T14:23:16.690Z,23.98
2018-09-12T14:25:45.673Z,23.98
2018-09-12T14:28:14.461Z,23.98
2018-09-12T14:30:43.313Z,23.98
2018-09-12T14:33:13.499Z,23.97
2018-09-12T14:35:42.418Z,23.98
2018-09-12T14:38:11.753Z,23.96
2018-09-12T14:40:40.660Z,23.96
2018-09-12T14:43:09.414Z,23.96
2018-09-12T14:48:06.488Z,23.96
2018-09-12T14:50:35.372Z,23.96
2018-09-12T14:53:04.873Z,23.97
2018-09-12T15:00:29.802Z,23.97
2018-09-12T15:02:59.740Z,23.97
2018-09-12T15:07:57.630Z,23.97
2018-09-12T15:10:27.010Z,23.97
2018-09-12T15:12:56.142Z,23.97
2018-09-12T15:15:25.244Z,23.96
2018-09-12T15:20:22.211Z,23.96
2018-09-12T15:22:51.020Z,23.96
2018-09-12T15:30:15.627Z,23.95
2018-09-12T15:32:44.569Z,23.95
2018-09-12T15:35:13.715Z,23.94
2018-09-12T15:37:42.620Z,23.94
2018-09-12T15:40:11.769Z,23.94
2018-09-12T15:42:41.178Z,23.93
2018-09-12T15:45:10.313Z,23.92
2018-09-12T15:47:39.625Z,23.92
2018-09-12T15:50:08.481Z,23.92
2018-09-12T15:52:37.240Z,23.92
2018-09-12T15:55:06.042Z,23.90
2018-09-12T15:57:34.794Z,23.90
2018-09-12T16:00:04.176Z,23.90
2018-09-12T16:02:32.957Z,23.89
2018-09-12T16:05:01.780Z,23.89
2018-09-12T16:07:30.606Z,23.88
2018-09-12T16:09:59.385Z,23.88
2018-09-12T16:12:28.214Z,23.88
2018-09-12T16:14:56.958Z,23.87
2018-09-12T16:17:25.713Z,23.86
2018-09-12T16:19:54.900Z,23.86
2018-09-12T16:22:23.847Z,23.85
2018-09-12T16:24:53.130Z,23.85
2018-09-12T16:27:22.650Z,23.84
2018-09-12T16:29:51.984Z,23.83
2018-09-12T16:32:21.057Z,23.82
2018-09-12T16:34:50.262Z,23.82
2018-09-12T16:37:19.401Z,23.82
2018-09-12T16:39:48.504Z,23.81
2018-09-12T16:42:17.642Z,23.80
2018-09-12T16:44:46.860Z,23.79
2018-09-12T16:47:15.943Z,23.79
2018-09-12T16:49:44.882Z,23.79
2018-09-12T16:52:13.689Z,23.78
2018-09-12T16:54:42.546Z,23.77
2018-09-12T16:57:11.389Z,23.78
2018-09-12T16:59:40.529Z,23.77
2018-09-12T17:02:09.311Z,23.78
2018-09-12T17:04:38.483Z,23.76
2018-09-12T17:07:07.312Z,23.77
2018-09-12T17:09:36.115Z,23.77
2018-09-12T17:12:04.909Z,23.75
2018-09-12T17:14:33.712Z,23.74
2018-09-12T17:17:03.476Z,23.75
2018-09-12T17:19:32.247Z,23.76
2018-09-12T17:22:01.030Z,23.74
2018-09-12T17:24:29.845Z,23.75
2018-09-12T17:26:58.642Z,23.76
2018-09-12T17:29:27.429Z,23.75
2018-09-12T17:31:56.445Z,23.76
2018-09-12T17:34:25.234Z,23.74
2018-09-12T17:36:54.377Z,23.75
2018-09-12T17:39:23.185Z,23.76
2018-09-12T17:41:51.961Z,23.75
2018-09-12T17:44:21.107Z,23.76
2018-09-12T17:46:49.939Z,23.75
2018-09-12T17:49:18.761Z,23.75
2018-09-12T17:51:47.637Z,23.74
2018-09-12T17:54:16.459Z,23.75
2018-09-12T17:56:45.326Z,23.76
2018-09-12T17:59:14.564Z,23.74
2018-09-12T18:01:43.661Z,23.74
2018-09-12T18:04:12.702Z,23.74
2018-09-12T18:06:41.733Z,23.75
2018-09-12T18:09:11.079Z,23.73
2018-09-12T18:11:39.879Z,23.74
2018-09-12T18:14:08.835Z,23.73
2018-09-12T18:16:37.627Z,23.74
2018-09-12T18:19:06.649Z,23.73
2018-09-12T18:21:35.480Z,23.72
2018-09-12T18:24:04.744Z,23.72
2018-09-12T18:26:33.556Z,23.72
2018-09-12T18:29:02.619Z,23.72
2018-09-12T18:31:31.472Z,23.72
2018-09-12T18:34:00.234Z,23.72
2018-09-12T18:36:29.368Z,23.72
2018-09-12T18:38:58.386Z,23.71
2018-09-12T18:41:27.636Z,23.72
2018-09-12T18:43:56.706Z,23.71
2018-09-12T18:46:25.806Z,23.70
2018-09-12T18:48:54.571Z,23.72
2018-09-12T18:51:23.556Z,23.70
2018-09-12T18:53:52.701Z,23.71
2018-09-12T18:56:21.530Z,23.70
2018-09-12T18:58:50.384Z,23.71
2018-09-12T19:01:19.528Z,23.70
2018-09-12T19:03:48.365Z,23.71
2018-09-12T19:06:17.403Z,23.70
2018-09-12T19:08:46.297Z,23.70
2018-09-12T19:11:15.108Z,23.70
2018-09-12T19:13:44.257Z,23.71
2018-09-12T19:16:13.374Z,23.71
2018-09-12T19:18:42.554Z,23.71
2018-09-12T19:21:11.699Z,23.71
2018-09-12T19:23:41.019Z,23.71
2018-09-12T19:26:10.228Z,23.71
2018-09-12T19:28:39.447Z,23.72
2018-09-12T19:31:08.675Z,23.71
2018-09-12T19:33:37.803Z,23.73
2018-09-12T19:36:06.927Z,23.72
2018-09-12T19:38:36.069Z,23.72
2018-09-12T19:41:05.296Z,23.73
2018-09-12T19:43:34.722Z,23.73
2018-09-12T19:46:04.288Z,23.74
2018-09-12T19:48:33.393Z,23.75
2018-09-12T19:51:03.156Z,23.74
2018-09-12T19:53:32.285Z,23.76
2018-09-12T19:56:01.398Z,23.76
2018-09-12T19:58:30.808Z,23.76
2018-09-12T20:01:00.049Z,23.77
2018-09-12T20:03:28.901Z,23.76
2018-09-12T20:05:58.172Z,23.78
2018-09-12T20:08:27.065Z,23.78
2018-09-12T20:10:56.464Z,23.78
2018-09-12T20:13:25.560Z,23.79
2018-09-12T20:15:54.925Z,23.81
2018-09-12T20:18:24.021Z,23.82
2018-09-12T20:20:53.056Z,23.83
2018-09-12T20:24:52.001Z,23.85
2018-09-12T20:27:21.075Z,23.83
2018-09-12T20:29:49.966Z,23.82
2018-09-12T20:32:18.968Z,23.84
2018-09-12T20:34:47.921Z,23.85
2018-09-12T20:37:16.874Z,23.87
2018-09-12T20:39:45.751Z,23.89
2018-09-12T20:42:14.769Z,23.88
2018-09-12T20:44:43.694Z,23.91
2018-09-12T20:47:13.866Z,23.92
2018-09-12T20:49:43.062Z,23.94
2018-09-12T20:52:11.918Z,23.94
2018-09-12T20:54:40.700Z,23.97
2018-09-12T20:57:09.566Z,23.97
2018-09-12T20:59:38.483Z,23.98
2018-09-12T21:02:07.733Z,23.98
2018-09-12T21:04:36.591Z,23.99
2018-09-12T21:07:05.520Z,24.00
2018-09-12T21:09:34.310Z,24.00
2018-09-12T21:12:03.145Z,24.01
2018-09-12T21:14:31.925Z,24.02
2018-09-12T21:17:00.803Z,24.01
2018-09-12T21:19:29.866Z,24.01
2018-09-12T21:21:58.654Z,24.01
2018-09-12T21:24:27.573Z,24.01
2018-09-12T21:26:56.356Z,24.02
2018-09-12T21:29:25.110Z,24.03
2018-09-12T21:31:53.955Z,24.03
2018-09-12T21:34:22.755Z,24.03
2018-09-12T21:36:52.348Z,24.03
2018-09-12T21:39:21.186Z,24.05
2018-09-12T21:41:49.962Z,24.04
2018-09-12T21:44:18.712Z,24.03
2018-09-12T21:46:47.474Z,24.04
2018-09-12T21:49:16.303Z,24.04
2018-09-12T21:51:45.194Z,24.04
2018-09-12T21:54:14.034Z,24.03
2018-09-12T21:56:43.006Z,24.04
2018-09-12T21:59:11.782Z,24.04
2018-09-12T22:01:41.616Z,24.04
2018-09-12T22:04:10.452Z,24.04
2018-09-12T22:06:39.281Z,24.04
2018-09-12T22:09:11.633Z,24.04
2018-09-12T22:11:40.451Z,24.04
2018-09-12T22:14:09.318Z,24.03
2018-09-12T22:16:38.120Z,24.04
2018-09-12T22:19:07.073Z,24.04
2018-09-12T22:21:35.964Z,24.04
2018-09-12T22:24:04.997Z,24.04
2018-09-12T22:26:33.808Z,24.04
2018-09-12T22:29:02.624Z,24.04
2018-09-12T22:31:31.425Z,24.04
2018-09-12T22:34:00.278Z,24.04
2018-09-12T22:36:29.147Z,24.05
2018-09-12T22:38:58.103Z,24.05
2018-09-12T22:41:26.863Z,24.05
2018-09-12T22:43:55.791Z,24.05
2018-09-12T22:46:24.566Z,24.05
2018-09-12T22:48:53.295Z,24.04
2018-09-12T22:51:22.102Z,24.05
2018-09-12T22:53:50.955Z,24.06
2018-09-12T22:56:19.744Z,24.05
2018-09-12T22:58:48.631Z,24.03
2018-09-12T23:01:17.420Z,24.05
2018-09-12T23:03:46.200Z,24.05
2018-09-12T23:06:15.005Z,24.05
2018-09-12T23:08:43.942Z,24.04
2018-09-12T23:11:12.765Z,24.05
2018-09-12T23:13:41.761Z,24.04
2018-09-12T23:16:10.565Z,24.04
2018-09-12T23:18:39.330Z,24.04
2018-09-12T23:21:08.117Z,24.04
2018-09-12T23:23:36.881Z,24.04
2018-09-12T23:26:05.784Z,24.04
2018-09-12T23:28:34.636Z,24.03
2018-09-12T23:31:03.406Z,24.02
2018-09-12T23:33:32.167Z,24.01
2018-09-12T23:36:01.011Z,24.02
2018-09-12T23:38:29.831Z,24.02
2018-09-12T23:40:58.632Z,24.01
2018-09-12T23:43:27.395Z,24.01
2018-09-12T23:45:56.148Z,24.01
2018-09-12T23:48:24.992Z,24.00
2018-09-12T23:50:53.777Z,24.01
2018-09-12T23:53:22.536Z,23.99
2018-09-12T23:55:51.348Z,24.00
2018-09-12T23:58:20.226Z,23.98
